createdAt,value
2022-09-25T00:01:54.606Z,14.77
2022-09-25T00:04:22.483Z,15.20
2022-09-25T00:06:50.332Z,14.40
2022-09-25T00:09:20.837Z,15.63
2022-09-25T00:11:48.641Z,15.57
2022-09-25T00:14:17.886Z,14.93
2022-09-25T00:16:45.774Z,13.23
2022-09-25T00:19:39.360Z,14.63
2022-09-25T00:22:07.232Z,13.70
2022-09-25T00:24:35.755Z,14.47
2022-09-25T00:27:03.594Z,15.10
2022-09-25T00:29:32.802Z,13.17
2022-09-25T00:32:00.826Z,15.70
2022-09-25T00:34:28.688Z,13.30
2022-09-25T00:36:57.354Z,14.47
2022-09-25T00:39:25.872Z,13.47
2022-09-25T00:41:53.906Z,13.77
2022-09-25T00:44:57.416Z,14.70
2022-09-25T00:47:31.869Z,14.73
2022-09-25T00:50:03.189Z,14.03
2022-09-25T00:52:31.583Z,13.93
2022-09-25T00:55:04.004Z,13.33
2022-09-25T00:57:35.338Z,14.93
2022-09-25T01:00:10.064Z,15.80
2022-09-25T01:02:41.947Z,16.30
2022-09-25T01:05:14.708Z,14.60
2022-09-25T01:07:46.239Z,16.83
2022-09-25T01:10:14.772Z,14.17
2022-09-25T01:12:44.783Z,14.90
2022-09-25T01:15:15.885Z,17.93
2022-09-25T01:17:52.528Z,16.50
2022-09-25T01:20:33.292Z,14.93
2022-09-25T01:23:16.339Z,15.07
2022-09-25T01:25:57.959Z,16.60
2022-09-25T01:28:50.627Z,14.30
2022-09-25T01:31:26.376Z,15.73
2022-09-25T01:34:00.624Z,13.43
2022-09-25T01:36:32.154Z,13.40
2022-09-25T01:39:07.220Z,13.13
2022-09-25T01:41:45.032Z,11.63
2022-09-25T01:44:20.975Z,11.17
2022-09-25T01:46:52.033Z,10.77
2022-09-25T01:49:24.591Z,9.43
2022-09-25T01:51:55.994Z,10.60
2022-09-25T01:54:28.962Z,10.63
2022-09-25T01:57:00.999Z,10.37
2022-09-25T01:59:45.099Z,9.57
2022-09-25T02:02:16.625Z,9.77
2022-09-25T02:04:47.406Z,8.93
2022-09-25T02:07:21.065Z,7.80
2022-09-25T02:09:52.717Z,7.30
2022-09-25T02:12:27.443Z,6.70
2022-09-25T02:15:00.613Z,6.30
2022-09-25T02:17:52.284Z,6.03
2022-09-25T02:20:33.888Z,5.80
2022-09-25T02:23:09.819Z,4.90
2022-09-25T02:25:42.361Z,4.67
2022-09-25T02:28:10.316Z,4.73
2022-09-25T02:30:39.713Z,5.43
2022-09-25T02:33:07.561Z,5.17
2022-09-25T02:35:35.392Z,4.90
2022-09-25T02:38:04.665Z,4.90
2022-09-25T02:40:42.970Z,4.70
2022-09-25T02:43:26.746Z,5.10
2022-09-25T02:46:05.679Z,5.30
2022-09-25T02:48:42.304Z,4.90
2022-09-25T02:51:17.545Z,4.73
2022-09-25T02:53:51.142Z,4.07
2022-09-25T02:56:24.572Z,3.23
2022-09-25T02:58:55.160Z,3.40
2022-09-25T03:01:27.178Z,2.73
2022-09-25T03:03:58.834Z,2.33
2022-09-25T03:06:27.562Z,2.87
2022-09-25T03:08:57.691Z,2.33
2022-09-25T03:11:27.700Z,2.73
2022-09-25T03:14:00.451Z,1.93
2022-09-25T03:16:34.917Z,2.20
2022-09-25T03:19:03.535Z,1.43
2022-09-25T03:21:31.929Z,1.57
2022-09-25T03:24:00.022Z,1.30
2022-09-25T03:26:28.603Z,1.57
2022-09-25T03:28:56.540Z,1.70
2022-09-25T03:31:24.777Z,1.83
2022-09-25T03:33:54.054Z,1.77
2022-09-25T03:36:23.734Z,2.07
2022-09-25T03:38:53.271Z,2.30
2022-09-25T03:41:22.861Z,1.60
2022-09-25T03:43:52.290Z,2.43
2022-09-25T03:46:22.609Z,1.73
2022-09-25T03:48:50.514Z,2.53
2022-09-25T03:51:20.244Z,2.07
2022-09-25T03:53:49.105Z,2.07
2022-09-25T03:56:19.937Z,2.63
2022-09-25T03:58:48.940Z,2.17
2022-09-25T04:01:19.312Z,2.13
2022-09-25T04:03:47.522Z,2.03
2022-09-25T04:06:18.210Z,2.23
2022-09-25T04:08:49.005Z,1.80
2022-09-25T04:11:17.889Z,1.87
2022-09-25T04:13:45.983Z,1.80
2022-09-25T04:16:15.944Z,2.07
2022-09-25T04:18:43.957Z,2.13
2022-09-25T04:21:13.680Z,1.57
2022-09-25T04:23:42.356Z,2.00
2022-09-25T04:26:11.521Z,2.00
2022-09-25T04:28:39.393Z,2.47
2022-09-25T04:31:07.445Z,2.63
2022-09-25T04:33:46.193Z,1.97
2022-09-25T04:36:14.096Z,2.00
2022-09-25T04:38:42.273Z,1.53
2022-09-25T04:41:11.538Z,1.50
2022-09-25T04:43:42.666Z,1.70
2022-09-25T04:46:16.782Z,1.80
2022-09-25T04:48:48.365Z,1.70
2022-09-25T04:51:16.218Z,1.30
2022-09-25T04:53:44.186Z,2.03
2022-09-25T04:56:15.910Z,1.47
2022-09-25T04:58:46.288Z,1.77
2022-09-25T05:01:14.293Z,1.67
2022-09-25T05:03:42.731Z,1.40
2022-09-25T05:06:10.702Z,1.70
2022-09-25T05:08:38.522Z,1.60
2022-09-25T05:11:07.524Z,1.90
2022-09-25T05:13:36.750Z,2.07
2022-09-25T05:16:04.672Z,1.40
2022-09-25T05:18:32.568Z,1.40
2022-09-25T05:21:05.202Z,1.37
2022-09-25T05:23:33.115Z,1.30
2022-09-25T05:26:02.260Z,1.80
2022-09-25T05:28:30.511Z,1.30
2022-09-25T05:31:03.375Z,1.50
2022-09-25T05:33:31.911Z,1.70
2022-09-25T05:36:02.594Z,1.47
2022-09-25T05:38:30.463Z,1.43
2022-09-25T05:41:03.357Z,1.30
2022-09-25T05:43:31.445Z,1.53
2022-09-25T05:46:01.168Z,1.80
2022-09-25T05:48:29.072Z,1.70
2022-09-25T05:50:58.397Z,1.57
2022-09-25T05:53:26.732Z,1.50
2022-09-25T05:55:57.014Z,1.43
2022-09-25T05:58:25.260Z,1.53
2022-09-25T06:00:53.274Z,1.50
2022-09-25T06:03:22.839Z,1.90
2022-09-25T06:05:50.746Z,1.63
2022-09-25T06:08:18.674Z,1.73
2022-09-25T06:10:54.731Z,1.67
2022-09-25T06:13:24.061Z,2.17
2022-09-25T06:15:52.740Z,1.60
2022-09-25T06:18:23.211Z,1.63
2022-09-25T06:20:52.410Z,1.93
2022-09-25T06:23:20.509Z,1.50
2022-09-25T06:25:48.352Z,1.67
2022-09-25T06:28:16.170Z,2.03
2022-09-25T06:30:44.007Z,1.87
2022-09-25T06:33:13.652Z,2.27
2022-09-25T06:35:44.853Z,3.10
2022-09-25T06:38:13.855Z,2.27
2022-09-25T06:40:42.804Z,1.80
2022-09-25T06:43:12.605Z,1.83
2022-09-25T06:45:41.258Z,1.40
2022-09-25T06:48:12.547Z,1.80
2022-09-25T06:50:44.093Z,2.13
2022-09-25T06:53:12.539Z,1.90
2022-09-25T06:55:41.337Z,1.40
2022-09-25T06:58:11.623Z,2.33
2022-09-25T07:00:39.574Z,2.10
2022-09-25T07:03:24.992Z,2.60
2022-09-25T07:05:54.199Z,1.83
2022-09-25T07:08:22.066Z,2.13
2022-09-25T07:10:50.427Z,2.00
2022-09-25T07:13:18.779Z,2.33
2022-09-25T07:15:52.661Z,1.80
2022-09-25T07:18:20.586Z,2.43
2022-09-25T07:20:54.279Z,2.03
2022-09-25T07:23:23.553Z,3.63
2022-09-25T07:25:52.508Z,2.23
2022-09-25T07:28:20.346Z,2.53
2022-09-25T07:30:49.494Z,3.20
2022-09-25T07:33:17.426Z,2.20
2022-09-25T07:35:45.265Z,1.97
2022-09-25T07:38:13.114Z,2.13
2022-09-25T07:40:42.871Z,2.40
2022-09-25T07:43:10.747Z,1.80
2022-09-25T07:45:38.771Z,2.53
2022-09-25T07:48:07.214Z,1.80
2022-09-25T07:50:35.246Z,1.97
2022-09-25T07:53:03.087Z,2.27
2022-09-25T07:55:30.924Z,1.90
2022-09-25T07:58:00.257Z,2.13
2022-09-25T08:00:28.147Z,1.73
2022-09-25T08:03:00.007Z,1.97
2022-09-25T08:05:28.564Z,1.50
2022-09-25T08:07:56.508Z,1.77
2022-09-25T08:10:24.640Z,1.57
2022-09-25T08:12:52.459Z,2.20
2022-09-25T08:15:21.989Z,1.70
2022-09-25T08:17:49.878Z,1.97
2022-09-25T08:20:17.798Z,1.77
2022-09-25T08:22:45.640Z,1.47
2022-09-25T08:25:13.481Z,1.40
2022-09-25T08:27:41.413Z,1.73
2022-09-25T08:30:11.005Z,1.20
2022-09-25T08:32:40.888Z,1.50
2022-09-25T08:35:09.425Z,1.30
2022-09-25T08:37:41.616Z,2.13
2022-09-25T08:40:19.251Z,1.30
2022-09-25T08:42:49.744Z,1.50
2022-09-25T08:45:50.030Z,1.10
2022-09-25T08:48:41.510Z,1.67
2022-09-25T08:51:10.689Z,2.13
2022-09-25T08:53:40.715Z,1.23
2022-09-25T08:56:17.463Z,1.50
2022-09-25T08:58:51.793Z,1.30
2022-09-25T09:01:23.448Z,1.90
2022-09-25T09:03:58.386Z,1.90
2022-09-25T09:06:28.824Z,1.47
2022-09-25T09:09:08.885Z,1.77
2022-09-25T09:11:40.565Z,1.50
2022-09-25T09:14:19.826Z,1.67
2022-09-25T09:16:55.805Z,1.90
2022-09-25T09:19:25.180Z,1.10
2022-09-25T09:22:00.691Z,1.47
2022-09-25T09:24:55.252Z,1.10
2022-09-25T09:27:38.914Z,1.30
2022-09-25T09:30:14.550Z,1.27
2022-09-25T09:33:00.639Z,1.20
2022-09-25T09:35:38.125Z,1.13
2022-09-25T09:38:16.411Z,1.47
2022-09-25T09:41:08.163Z,1.47
2022-09-25T09:43:47.787Z,1.60
2022-09-25T09:46:21.671Z,1.43
2022-09-25T09:49:01.354Z,1.50
2022-09-25T09:51:36.000Z,1.30
2022-09-25T09:54:12.251Z,1.00
2022-09-25T09:56:43.262Z,1.37
2022-09-25T09:59:17.986Z,1.20
2022-09-25T10:01:50.570Z,1.43
2022-09-25T10:04:21.707Z,1.50
2022-09-25T10:06:54.918Z,1.17
2022-09-25T10:09:24.964Z,1.00
2022-09-25T10:12:02.955Z,1.63
2022-09-25T10:14:34.984Z,1.57
2022-09-25T10:17:03.545Z,1.07
2022-09-25T10:19:37.267Z,1.10
2022-09-25T10:22:16.500Z,1.20
2022-09-25T10:24:53.009Z,1.23
2022-09-25T10:27:26.526Z,1.47
2022-09-25T10:30:08.146Z,0.90
2022-09-25T10:32:44.234Z,1.20
2022-09-25T10:35:16.612Z,1.70
2022-09-25T10:37:51.317Z,1.10
2022-09-25T10:40:26.645Z,0.80
2022-09-25T10:43:09.808Z,1.27
2022-09-25T10:45:40.655Z,1.03
2022-09-25T10:48:47.050Z,1.10
2022-09-25T10:51:17.274Z,1.40
2022-09-25T10:53:50.427Z,1.10
2022-09-25T10:56:22.758Z,0.83
2022-09-25T10:58:55.660Z,0.77
2022-09-25T11:01:48.976Z,1.20
2022-09-25T11:04:25.615Z,0.97
2022-09-25T11:06:58.327Z,0.90
2022-09-25T11:09:29.607Z,0.80
2022-09-25T11:12:08.170Z,1.00
2022-09-25T11:14:37.433Z,1.13
2022-09-25T11:17:06.929Z,1.27
2022-09-25T11:19:38.388Z,1.40
2022-09-25T11:22:18.052Z,1.07
2022-09-25T11:25:00.210Z,1.13
2022-09-25T11:27:35.859Z,0.77
2022-09-25T11:30:06.512Z,0.97
2022-09-25T11:32:43.847Z,1.43
2022-09-25T11:35:25.912Z,1.07
2022-09-25T11:38:06.248Z,1.10
2022-09-25T11:41:00.599Z,1.07
2022-09-25T11:43:38.774Z,0.70
2022-09-25T11:46:18.929Z,0.83
2022-09-25T11:49:00.732Z,0.97
2022-09-25T11:51:55.576Z,1.00
2022-09-25T11:54:35.966Z,0.87
2022-09-25T11:57:15.695Z,1.17
2022-09-25T12:00:03.674Z,1.00
2022-09-25T12:02:40.946Z,1.07
2022-09-25T12:05:42.014Z,0.70
2022-09-25T12:08:24.215Z,1.07
2022-09-25T12:11:01.591Z,0.80
2022-09-25T12:13:44.431Z,0.80
2022-09-25T12:16:20.934Z,0.70
2022-09-25T12:19:04.781Z,1.00
2022-09-25T12:21:38.863Z,0.60
2022-09-25T12:24:17.689Z,1.00
2022-09-25T12:26:54.624Z,0.90
2022-09-25T12:29:37.910Z,0.80
2022-09-25T12:32:16.048Z,0.77
2022-09-25T12:35:00.034Z,0.80
2022-09-25T12:37:38.562Z,1.00
2022-09-25T12:40:16.064Z,0.90
2022-09-25T12:42:51.091Z,0.70
2022-09-25T12:45:31.107Z,1.00
2022-09-25T12:48:12.227Z,0.80
2022-09-25T12:50:45.500Z,0.80
2022-09-25T12:53:25.175Z,0.77
2022-09-25T12:55:58.152Z,0.70
2022-09-25T12:58:38.506Z,0.90
2022-09-25T13:01:14.371Z,1.07
2022-09-25T13:03:48.392Z,1.10
2022-09-25T13:06:24.916Z,1.10
2022-09-25T13:08:57.861Z,0.90
2022-09-25T13:11:38.172Z,0.73
2022-09-25T13:14:12.110Z,1.30
2022-09-25T13:16:41.471Z,1.27
2022-09-25T13:19:23.531Z,1.20
2022-09-25T13:21:51.732Z,1.10
2022-09-25T13:24:21.006Z,1.10
2022-09-25T13:26:53.451Z,0.90
2022-09-25T13:29:28.017Z,1.00
2022-09-25T13:32:06.799Z,0.97
2022-09-25T13:34:39.168Z,1.00
2022-09-25T13:37:10.578Z,0.93
2022-09-25T13:39:59.108Z,0.90
2022-09-25T13:42:30.347Z,0.87
2022-09-25T13:45:07.437Z,1.00
2022-09-25T13:47:49.242Z,1.00
2022-09-25T13:50:28.449Z,0.90
2022-09-25T13:53:37.423Z,1.03
2022-09-25T13:56:23.582Z,0.90
2022-09-25T13:59:23.055Z,0.90
2022-09-25T14:01:56.466Z,0.90
2022-09-25T14:04:36.202Z,1.20
2022-09-25T14:07:20.292Z,0.60
2022-09-25T14:09:51.363Z,0.90
2022-09-25T14:12:34.967Z,0.93
2022-09-25T14:15:07.276Z,0.90
2022-09-25T14:17:37.294Z,0.67
2022-09-25T14:20:18.894Z,0.67
2022-09-25T14:22:55.890Z,1.30
2022-09-25T14:25:32.829Z,1.00
2022-09-25T14:28:01.447Z,0.80
2022-09-25T14:30:30.520Z,1.03
2022-09-25T14:33:17.875Z,0.83
2022-09-25T14:35:54.918Z,1.00
2022-09-25T14:39:04.945Z,0.73
2022-09-25T14:42:02.890Z,1.23
2022-09-25T14:44:57.454Z,1.10
2022-09-25T14:47:31.845Z,1.30
2022-09-25T14:49:59.800Z,1.10
2022-09-25T14:52:32.877Z,0.80
2022-09-25T14:55:01.593Z,1.20
2022-09-25T14:57:33.681Z,1.23
2022-09-25T15:00:04.597Z,1.20
2022-09-25T15:02:36.815Z,1.40
2022-09-25T15:05:29.262Z,1.17
2022-09-25T15:08:01.317Z,1.97
2022-09-25T15:10:31.736Z,12.03
2022-09-25T15:13:15.732Z,1.10
2022-09-25T15:16:06.129Z,1.30
2022-09-25T15:18:37.084Z,1.23
2022-09-25T15:21:08.506Z,1.60
2022-09-25T15:23:38.822Z,1.07
2022-09-25T15:26:07.152Z,1.40
2022-09-25T15:28:40.207Z,1.30
2022-09-25T15:31:08.856Z,1.10
2022-09-25T15:33:38.985Z,1.07
2022-09-25T15:36:16.628Z,1.30
2022-09-25T15:38:52.826Z,1.27
2022-09-25T15:41:23.046Z,1.17
2022-09-25T15:43:51.120Z,1.10
2022-09-25T15:46:38.234Z,1.20
2022-09-25T15:49:07.091Z,0.90
2022-09-25T15:51:37.075Z,1.20
2022-09-25T15:54:25.867Z,1.07
2022-09-25T15:56:56.052Z,1.43
2022-09-25T15:59:27.087Z,1.30
2022-09-25T16:02:12.945Z,1.00
2022-09-25T16:04:50.391Z,1.20
2022-09-25T16:07:23.981Z,1.03
2022-09-25T16:09:54.277Z,1.30
2022-09-25T16:12:27.490Z,1.90
2022-09-25T16:14:57.073Z,1.10
2022-09-25T16:17:33.654Z,0.97
2022-09-25T16:20:04.970Z,1.37
2022-09-25T16:22:39.624Z,1.40
2022-09-25T16:25:21.859Z,1.17
2022-09-25T16:27:50.145Z,1.17
2022-09-25T16:30:20.605Z,1.40
2022-09-25T16:32:50.167Z,1.43
2022-09-25T16:35:25.894Z,1.27
2022-09-25T16:37:54.981Z,1.23
2022-09-25T16:40:28.896Z,1.53
2022-09-25T16:42:58.390Z,1.70
2022-09-25T16:45:29.547Z,1.60
2022-09-25T16:47:58.789Z,1.67
2022-09-25T16:50:29.232Z,1.87
2022-09-25T16:52:57.211Z,1.77
2022-09-25T16:55:29.292Z,1.50
2022-09-25T16:57:58.396Z,1.90
2022-09-25T17:00:28.346Z,1.50
2022-09-25T17:02:56.836Z,1.57
2022-09-25T17:05:27.654Z,1.43
2022-09-25T17:07:57.319Z,1.30
2022-09-25T17:10:28.880Z,1.93
2022-09-25T17:13:00.694Z,1.57
2022-09-25T17:15:32.666Z,1.50
2022-09-25T17:18:01.936Z,1.30
2022-09-25T17:20:31.875Z,1.10
2022-09-25T17:23:03.219Z,1.57
2022-09-25T17:25:43.494Z,1.80
2022-09-25T17:28:11.817Z,1.70
2022-09-25T17:30:40.625Z,1.47
2022-09-25T17:33:17.823Z,1.23
2022-09-25T17:35:50.045Z,1.47
2022-09-25T17:38:18.074Z,1.10
2022-09-25T17:40:59.418Z,1.50
2022-09-25T17:43:37.848Z,1.60
2022-09-25T17:46:06.729Z,1.77
2022-09-25T17:48:35.051Z,1.20
2022-09-25T17:51:05.369Z,1.23
2022-09-25T17:53:34.307Z,1.13
2022-09-25T17:56:04.038Z,1.10
2022-09-25T17:58:32.711Z,1.23
2022-09-25T18:01:01.956Z,1.30
2022-09-25T18:03:30.729Z,1.60
2022-09-25T18:05:58.935Z,1.40
2022-09-25T18:08:27.552Z,1.10
2022-09-25T18:10:58.482Z,1.00
2022-09-25T18:13:27.761Z,0.90
2022-09-25T18:15:58.811Z,0.93
2022-09-25T18:18:48.469Z,1.20
2022-09-25T18:21:34.389Z,0.90
2022-09-25T18:24:03.006Z,1.27
2022-09-25T18:26:31.778Z,1.03
2022-09-25T18:29:03.372Z,1.37
2022-09-25T18:31:31.590Z,0.90
2022-09-25T18:33:59.442Z,1.00
2022-09-25T18:36:36.256Z,0.90
2022-09-25T18:39:04.429Z,0.90
2022-09-25T18:41:32.456Z,0.90
2022-09-25T18:44:13.223Z,0.80
2022-09-25T18:46:41.416Z,0.90
2022-09-25T18:49:09.481Z,0.83
2022-09-25T18:51:37.290Z,1.33
2022-09-25T18:54:05.233Z,1.20
2022-09-25T18:56:37.143Z,1.60
2022-09-25T18:59:06.588Z,1.20
2022-09-25T19:01:38.832Z,1.40
2022-09-25T19:04:07.867Z,1.77
2022-09-25T19:06:35.988Z,2.17
2022-09-25T19:09:04.892Z,3.50
2022-09-25T19:11:32.943Z,4.20
2022-09-25T19:14:01.508Z,2.97
2022-09-25T19:16:32.982Z,1.80
2022-09-25T19:19:05.242Z,1.80
2022-09-25T19:21:33.159Z,2.37
2022-09-25T19:24:01.481Z,4.23
2022-09-25T19:26:29.339Z,5.93
2022-09-25T19:28:57.262Z,5.63
2022-09-25T19:31:26.609Z,3.97
2022-09-25T19:33:55.515Z,4.80
2022-09-25T19:36:30.115Z,4.57
2022-09-25T19:38:58.695Z,4.07
2022-09-25T19:41:30.979Z,4.57
2022-09-25T19:44:06.918Z,3.93
2022-09-25T19:46:40.889Z,3.10
2022-09-25T19:49:09.858Z,2.80
2022-09-25T19:51:39.584Z,1.93
2022-09-25T19:54:08.449Z,2.10
2022-09-25T19:56:40.349Z,2.07
2022-09-25T19:59:08.728Z,2.40
2022-09-25T20:01:39.074Z,2.40
2022-09-25T20:04:08.535Z,2.93
2022-09-25T20:06:39.367Z,6.47
2022-09-25T20:09:10.318Z,2.67
2022-09-25T20:11:38.369Z,2.53
2022-09-25T20:14:07.506Z,3.67
2022-09-25T20:16:37.340Z,4.20
2022-09-25T20:19:06.995Z,4.30
2022-09-25T20:21:41.711Z,3.67
2022-09-25T20:24:10.637Z,3.07
2022-09-25T20:26:39.164Z,2.60
2022-09-25T20:29:11.908Z,3.07
2022-09-25T20:31:41.175Z,2.43
2022-09-25T20:34:13.108Z,2.37
2022-09-25T20:36:42.635Z,2.20
2022-09-25T20:39:10.850Z,2.27
2022-09-25T20:41:39.225Z,2.47
2022-09-25T20:44:07.390Z,1.70
2022-09-25T20:46:35.681Z,1.97
2022-09-25T20:49:04.040Z,2.10
2022-09-25T20:51:35.157Z,2.00
2022-09-25T20:54:06.515Z,2.47
2022-09-25T20:56:36.639Z,2.77
2022-09-25T20:59:05.260Z,2.70
2022-09-25T21:01:35.547Z,2.53
2022-09-25T21:04:06.129Z,2.17
2022-09-25T21:06:35.776Z,1.83
2022-09-25T21:09:07.042Z,2.03
2022-09-25T21:11:35.310Z,1.80
2022-09-25T21:14:04.151Z,2.07
2022-09-25T21:16:33.948Z,2.30
2022-09-25T21:19:04.769Z,2.10
2022-09-25T21:21:34.087Z,2.20
2022-09-25T21:24:02.478Z,2.00
2022-09-25T21:26:32.786Z,2.13
2022-09-25T21:29:02.328Z,2.30
2022-09-25T21:31:32.485Z,1.97
2022-09-25T21:34:00.899Z,1.60
2022-09-25T21:36:30.897Z,1.73
2022-09-25T21:38:59.845Z,2.00
2022-09-25T21:41:29.730Z,2.20
2022-09-25T21:44:01.487Z,1.50
2022-09-25T21:46:30.534Z,11.27
2022-09-25T21:49:00.305Z,14.23
2022-09-25T21:51:30.463Z,12.17
2022-09-25T21:53:58.659Z,8.60
2022-09-25T21:56:27.776Z,5.50
2022-09-25T21:58:58.366Z,3.83
2022-09-25T22:01:28.402Z,2.80
2022-09-25T22:03:58.068Z,2.80
2022-09-25T22:06:27.926Z,2.67
2022-09-25T22:08:58.260Z,2.27
2022-09-25T22:11:26.780Z,2.00
2022-09-25T22:13:57.257Z,2.10
2022-09-25T22:16:29.471Z,1.30
2022-09-25T22:18:59.799Z,1.93
2022-09-25T22:21:30.815Z,1.80
2022-09-25T22:23:58.880Z,1.90
2022-09-25T22:26:28.076Z,2.20
2022-09-25T22:28:56.354Z,1.63
2022-09-25T22:31:27.500Z,1.80
2022-09-25T22:33:57.357Z,2.20
2022-09-25T22:36:26.949Z,1.80
2022-09-25T22:38:55.211Z,1.83
2022-09-25T22:41:23.796Z,2.80
2022-09-25T22:43:52.884Z,1.80
2022-09-25T22:46:21.937Z,2.13
2022-09-25T22:48:52.093Z,1.80
2022-09-25T22:51:21.841Z,2.23
2022-09-25T22:53:49.913Z,1.70
2022-09-25T22:56:19.682Z,1.93
2022-09-25T22:58:49.723Z,2.23
2022-09-25T23:01:21.275Z,1.70
2022-09-25T23:03:49.529Z,2.40
2022-09-25T23:06:18.720Z,2.30
2022-09-25T23:08:52.155Z,1.73
2022-09-25T23:11:21.680Z,2.00
2022-09-25T23:13:50.575Z,1.50
2022-09-25T23:16:19.145Z,1.87
2022-09-25T23:18:47.034Z,2.27
2022-09-25T23:21:15.069Z,1.90
2022-09-25T23:23:44.280Z,1.90
2022-09-25T23:26:12.109Z,2.10
2022-09-25T23:28:41.489Z,2.20
2022-09-25T23:31:11.333Z,2.10
2022-09-25T23:33:40.331Z,2.07
2022-09-25T23:36:10.368Z,2.40
2022-09-25T23:38:38.658Z,1.87
2022-09-25T23:41:16.485Z,1.97
2022-09-25T23:43:45.078Z,2.50
2022-09-25T23:46:13.666Z,2.17
2022-09-25T23:48:41.771Z,2.50
2022-09-25T23:51:10.534Z,2.50
2022-09-25T23:53:38.400Z,2.20
2022-09-25T23:56:07.943Z,2.10
2022-09-25T23:58:37.339Z,2.27
